Impacts TAF Board
For situational awareness. Not to be used for flight planning purposes.
IDs:

KHUM - Houma/Terrebonne Arp, LA, US

Issued at 1738 UTC 23 Jan 2019
Updated at 1743 UTC 23 Jan 2019
Potential Impact None Slight Moderate High
Time<<24/06Z 24/07Z 24/08Z 24/09Z 24/10Z 24/11Z 24/12Z 24/13Z 24/14Z 24/15Z 24/16Z 24/17Z 24/18Z>>
Type PRVL PRVL PRVL PRVL PRVL PRVL PRVL PRVL PRVL PRVL PRVL PRVL
VIS >6 >6 >6 >6 >6 >6 >6 >6 >6 >6 >6 >6
CIG 25 25 25 -- -- -- -- -- -- -- -- --
Cover OVC OVC OVC SCT SCT SCT SCT SCT SCT SCT SCT SCT
FltCat MVFR MVFR MVFR VFR VFR VFR VFR VFR VFR VFR VFR VFR
WX -- -- -- -- -- -- -- -- -- -- -- --
WDir 310 310 310 320 320 320 320 320 320 320 320 320
WSpd 10 10 10 7 7 7 7 7 7 7 7 7
WGst -- -- -- -- -- -- -- -- -- -- -- --
Raw TAF
KHUM 231738Z 2318/2418 20015G22KT 5SM -SHRA BKN025 OVC050
  TEMPO 2318/2320 29017G25KT 1/2SM +TSRA BKN020CB
  FM232000 30015G22KT 5SM -SHRA BKN015
  FM240100 30012G17KT P6SM OVC018
  FM240500 31010KT P6SM BKN025 OVC050
  FM240900 32007KT P6SM SCT250


METAR Board
Radar Display
Forecast Discussion
For situational awareness. Not to be used for flight planning purposes.